createdAt,value
2023-02-27T00:02:23.235Z,4.05
2023-02-27T00:04:57.990Z,3.91
2023-02-27T00:07:28.809Z,3.82
2023-02-27T00:09:58.175Z,3.73
2023-02-27T00:12:26.078Z,3.53
2023-02-27T00:14:55.433Z,3.62
2023-02-27T00:17:25.800Z,3.54
2023-02-27T00:19:53.752Z,3.56
2023-02-27T00:22:21.636Z,3.71
2023-02-27T00:24:49.541Z,3.31
2023-02-27T00:27:17.505Z,3.63
2023-02-27T00:29:45.421Z,3.64
2023-02-27T00:32:14.772Z,3.45
2023-02-27T00:34:42.977Z,3.47
2023-02-27T00:37:11.112Z,3.64
2023-02-27T00:39:39.041Z,3.32
2023-02-27T00:42:06.978Z,3.58
2023-02-27T00:44:34.959Z,3.70
2023-02-27T00:47:03.141Z,3.46
2023-02-27T00:49:32.474Z,3.37
2023-02-27T00:52:00.455Z,3.57
2023-02-27T00:54:28.526Z,3.52
2023-02-27T00:56:56.493Z,3.54
2023-02-27T00:59:24.478Z,3.52
2023-02-27T01:01:52.614Z,3.53
2023-02-27T01:04:20.837Z,3.31
2023-02-27T01:06:50.255Z,3.42
2023-02-27T01:09:18.228Z,3.42
2023-02-27T01:11:46.224Z,3.36
2023-02-27T01:14:14.979Z,3.35
2023-02-27T01:16:43.100Z,3.35
2023-02-27T01:19:11.104Z,3.33
2023-02-27T01:21:42.022Z,3.33
2023-02-27T01:24:12.610Z,3.30
2023-02-27T01:26:42.862Z,3.23
2023-02-27T01:29:11.221Z,3.21
2023-02-27T01:31:39.252Z,3.06
2023-02-27T01:34:07.184Z,3.00
2023-02-27T01:36:35.153Z,2.99
2023-02-27T01:39:03.058Z,3.03
2023-02-27T01:41:32.679Z,2.97
2023-02-27T01:44:04.025Z,2.93
2023-02-27T01:46:34.497Z,2.79
2023-02-27T01:49:09.703Z,2.81
2023-02-27T01:51:47.414Z,2.78
2023-02-27T01:54:21.499Z,2.51
2023-02-27T01:56:51.873Z,2.56
2023-02-27T01:59:21.144Z,2.66
2023-02-27T02:01:49.719Z,2.28
2023-02-27T02:04:26.469Z,2.46
2023-02-27T02:07:01.801Z,2.55
2023-02-27T02:09:31.251Z,2.38
2023-02-27T02:12:01.383Z,2.10
2023-02-27T02:14:29.280Z,2.05
2023-02-27T02:17:15.819Z,2.17
2023-02-27T02:20:46.434Z,2.07
2023-02-27T02:23:46.369Z,1.94
2023-02-27T02:26:38.904Z,1.79
2023-02-27T02:30:03.764Z,1.79
2023-02-27T02:33:28.187Z,1.89
2023-02-27T02:36:47.589Z,1.76
2023-02-27T02:39:58.358Z,1.81
2023-02-27T02:42:33.162Z,1.87
2023-02-27T02:45:18.368Z,1.78
2023-02-27T02:48:03.971Z,1.70
2023-02-27T02:50:40.777Z,1.96
2023-02-27T02:53:23.973Z,1.80
2023-02-27T02:56:01.768Z,1.82
2023-02-27T02:58:38.897Z,1.80
2023-02-27T03:01:15.698Z,1.65
2023-02-27T03:03:53.739Z,1.85
2023-02-27T03:06:29.588Z,1.70
2023-02-27T03:09:06.925Z,1.74
2023-02-27T03:11:42.099Z,1.71
2023-02-27T03:14:20.270Z,1.78
2023-02-27T03:16:54.540Z,1.80
2023-02-27T03:19:28.671Z,1.69
2023-02-27T03:22:05.357Z,1.66
2023-02-27T03:24:41.481Z,1.52
2023-02-27T03:27:13.266Z,1.63
2023-02-27T03:29:48.902Z,1.58
2023-02-27T03:32:26.249Z,1.67
2023-02-27T03:34:54.440Z,1.62
2023-02-27T03:37:37.404Z,1.76
2023-02-27T03:40:21.393Z,1.56
2023-02-27T03:42:57.162Z,1.70
2023-02-27T03:45:35.931Z,1.77
2023-02-27T03:48:06.971Z,1.49
2023-02-27T03:50:35.622Z,1.77
2023-02-27T03:53:08.075Z,1.73
2023-02-27T03:55:42.163Z,1.79
2023-02-27T03:58:11.596Z,1.71
2023-02-27T04:00:39.845Z,1.77
2023-02-27T04:03:08.234Z,1.65
2023-02-27T04:05:37.277Z,1.60
2023-02-27T04:08:42.866Z,1.70
2023-02-27T04:11:38.460Z,1.43
2023-02-27T04:14:31.949Z,1.51
2023-02-27T04:17:25.889Z,1.56
2023-02-27T04:20:18.489Z,1.42
2023-02-27T04:22:53.435Z,1.54
2023-02-27T04:25:40.576Z,1.54
2023-02-27T04:28:17.976Z,1.37
2023-02-27T04:31:02.586Z,1.10
2023-02-27T04:33:45.460Z,1.35
2023-02-27T04:36:23.669Z,1.39
2023-02-27T04:39:03.630Z,1.23
2023-02-27T04:41:39.193Z,1.25
2023-02-27T04:44:12.472Z,1.18
2023-02-27T04:46:46.273Z,1.01
2023-02-27T04:49:22.780Z,1.23
2023-02-27T04:51:58.432Z,1.00
2023-02-27T04:54:33.670Z,1.08
2023-02-27T04:57:08.557Z,1.03
2023-02-27T04:59:42.605Z,1.10
2023-02-27T05:02:19.957Z,1.03
2023-02-27T05:04:51.342Z,1.34
2023-02-27T05:07:26.747Z,1.46
2023-02-27T05:10:03.480Z,1.50
2023-02-27T05:12:37.343Z,1.51
2023-02-27T05:15:14.054Z,1.39
2023-02-27T05:17:51.226Z,1.53
2023-02-27T05:20:21.159Z,1.11
2023-02-27T05:22:59.845Z,1.43
2023-02-27T05:25:38.607Z,1.34
2023-02-27T05:28:16.410Z,1.01
2023-02-27T05:30:57.374Z,1.11
2023-02-27T05:33:36.669Z,1.24
2023-02-27T05:36:15.433Z,1.26
2023-02-27T05:38:52.528Z,1.31
2023-02-27T05:41:28.769Z,1.22
2023-02-27T05:44:04.892Z,1.33
2023-02-27T05:46:39.695Z,1.40
2023-02-27T05:49:14.746Z,1.11
2023-02-27T05:51:49.363Z,1.34
2023-02-27T05:54:27.845Z,1.27
2023-02-27T05:57:00.786Z,1.34
2023-02-27T05:59:41.692Z,1.26
2023-02-27T06:02:09.701Z,1.35
2023-02-27T06:04:41.853Z,1.36
2023-02-27T06:07:09.809Z,1.33
2023-02-27T06:09:40.569Z,1.32
2023-02-27T06:12:08.575Z,1.27
2023-02-27T06:14:36.587Z,1.25
2023-02-27T06:17:05.039Z,1.26
2023-02-27T06:19:33.091Z,1.26
2023-02-27T06:22:02.404Z,1.13
2023-02-27T06:24:30.322Z,1.08
2023-02-27T06:26:58.244Z,1.13
2023-02-27T06:29:26.239Z,1.00
2023-02-27T06:31:55.638Z,1.06
2023-02-27T06:34:23.714Z,1.06
2023-02-27T06:36:51.627Z,1.07
2023-02-27T06:39:21.169Z,0.93
2023-02-27T06:41:49.393Z,1.09
2023-02-27T06:44:19.434Z,1.06
2023-02-27T06:46:47.582Z,1.11
2023-02-27T06:49:15.545Z,1.12
2023-02-27T06:51:45.031Z,1.21
2023-02-27T06:54:13.115Z,1.32
2023-02-27T06:56:46.032Z,1.41
2023-02-27T06:59:14.234Z,1.58
2023-02-27T07:01:42.256Z,1.59
2023-02-27T07:04:13.188Z,1.62
2023-02-27T07:07:34.673Z,1.65
2023-02-27T07:09:33.024Z,1.26
2023-02-27T07:12:02.388Z,1.23
2023-02-27T07:14:30.840Z,1.57
2023-02-27T07:16:59.432Z,1.80
2023-02-27T07:19:27.332Z,2.07
2023-02-27T07:21:55.277Z,2.02
2023-02-27T07:24:23.295Z,2.18
2023-02-27T07:26:53.211Z,2.30
2023-02-27T07:29:22.535Z,2.27
2023-02-27T07:31:50.541Z,2.38
2023-02-27T07:34:18.530Z,2.83
2023-02-27T07:36:46.953Z,3.60
2023-02-27T07:39:15.029Z,3.49
2023-02-27T07:41:42.945Z,3.53
2023-02-27T07:44:11.017Z,3.65
2023-02-27T07:46:44.746Z,5.09
2023-02-27T07:49:12.869Z,5.75
2023-02-27T07:51:43.836Z,6.54
2023-02-27T07:54:11.947Z,6.93
2023-02-27T07:56:42.888Z,7.80
2023-02-27T07:59:10.984Z,7.98
2023-02-27T08:01:42.972Z,8.00
2023-02-27T08:04:11.312Z,8.48
2023-02-27T08:06:39.857Z,8.81
2023-02-27T08:09:07.989Z,9.67
2023-02-27T08:11:35.916Z,9.68
2023-02-27T08:14:04.137Z,8.63
2023-02-27T08:16:33.054Z,8.92
2023-02-27T08:19:03.071Z,8.14
2023-02-27T08:21:31.451Z,7.61
2023-02-27T08:23:59.772Z,7.99
2023-02-27T08:26:28.093Z,8.46
2023-02-27T08:28:56.248Z,8.18
2023-02-27T08:31:24.690Z,8.89
2023-02-27T08:34:01.016Z,9.04
2023-02-27T08:36:33.837Z,8.30
2023-02-27T08:39:01.890Z,7.28
2023-02-27T08:41:29.869Z,6.83
2023-02-27T08:43:57.781Z,7.83
2023-02-27T08:46:26.253Z,7.46
2023-02-27T08:48:54.767Z,7.02
2023-02-27T08:51:22.845Z,6.93
2023-02-27T08:53:52.962Z,7.20
2023-02-27T08:56:20.884Z,6.90
2023-02-27T08:58:48.791Z,6.45
2023-02-27T09:01:16.777Z,6.99
2023-02-27T09:03:44.747Z,6.71
2023-02-27T09:06:13.470Z,6.62
2023-02-27T09:08:41.449Z,6.66
2023-02-27T09:11:10.691Z,6.32
2023-02-27T09:13:38.671Z,5.72
2023-02-27T09:16:07.721Z,5.57
2023-02-27T09:18:35.865Z,5.80
2023-02-27T09:21:04.154Z,5.65
2023-02-27T09:23:32.145Z,6.04
2023-02-27T09:25:59.969Z,6.39
2023-02-27T09:28:29.323Z,6.67
2023-02-27T09:30:57.355Z,6.84
2023-02-27T09:33:29.081Z,6.95
2023-02-27T09:35:57.200Z,7.12
2023-02-27T09:38:25.192Z,7.04
2023-02-27T09:40:56.938Z,7.18
2023-02-27T09:43:33.716Z,7.40
2023-02-27T09:46:04.156Z,7.58
2023-02-27T09:48:36.208Z,7.22
2023-02-27T09:51:05.549Z,8.53
2023-02-27T09:53:39.247Z,8.53
2023-02-27T09:56:17.773Z,8.45
2023-02-27T09:58:59.041Z,8.18
2023-02-27T10:01:34.165Z,8.47
2023-02-27T10:04:37.537Z,8.78
2023-02-27T10:07:17.726Z,8.90
2023-02-27T10:10:04.680Z,9.38
2023-02-27T10:13:07.469Z,10.57
2023-02-27T10:15:42.827Z,10.47
2023-02-27T10:18:26.792Z,11.39
2023-02-27T10:21:01.622Z,10.61
2023-02-27T10:23:40.117Z,11.95
2023-02-27T10:26:19.722Z,12.62
2023-02-27T10:28:48.508Z,13.92
2023-02-27T10:31:24.071Z,13.92
2023-02-27T10:33:53.479Z,13.04
2023-02-27T10:36:33.132Z,12.91
2023-02-27T10:39:07.906Z,12.65
2023-02-27T10:41:38.013Z,12.54
2023-02-27T10:44:06.600Z,12.01
2023-02-27T10:46:38.837Z,12.37
2023-02-27T10:49:18.853Z,12.54
2023-02-27T10:52:04.401Z,11.20
2023-02-27T10:54:32.518Z,11.05
2023-02-27T10:57:07.185Z,9.49
2023-02-27T10:59:39.739Z,10.59
2023-02-27T11:02:24.704Z,11.19
2023-02-27T11:04:56.006Z,10.00
2023-02-27T11:07:35.785Z,10.15
2023-02-27T11:10:19.071Z,10.50
2023-02-27T11:13:02.194Z,10.52
2023-02-27T11:15:33.915Z,10.29
2023-02-27T11:18:27.204Z,10.34
2023-02-27T11:21:09.716Z,10.03
2023-02-27T11:23:37.804Z,10.08
2023-02-27T11:26:18.501Z,9.88
2023-02-27T11:28:46.404Z,9.91
2023-02-27T11:31:23.421Z,9.54
2023-02-27T11:33:55.960Z,9.31
2023-02-27T11:36:24.592Z,8.97
2023-02-27T11:38:55.235Z,8.73
2023-02-27T11:41:35.007Z,8.88
2023-02-27T11:44:05.586Z,8.55
2023-02-27T11:46:47.952Z,8.50
2023-02-27T11:49:34.763Z,8.10
2023-02-27T11:52:16.468Z,8.32
2023-02-27T11:54:52.099Z,7.92
2023-02-27T11:57:28.626Z,7.75
2023-02-27T12:00:06.570Z,7.72
2023-02-27T12:02:47.739Z,8.12
2023-02-27T12:05:21.719Z,8.43
2023-02-27T12:07:57.633Z,7.95
2023-02-27T12:10:31.785Z,7.85
2023-02-27T12:13:06.809Z,7.42
2023-02-27T12:15:48.048Z,7.43
2023-02-27T12:18:20.968Z,7.46
2023-02-27T12:20:58.440Z,8.23
2023-02-27T12:23:36.858Z,8.92
2023-02-27T12:26:13.618Z,8.81
2023-02-27T12:28:56.207Z,9.43
2023-02-27T12:31:47.881Z,9.41
2023-02-27T12:34:29.425Z,8.34
2023-02-27T12:37:04.783Z,8.05
2023-02-27T12:39:35.942Z,9.00
2023-02-27T12:42:40.180Z,9.43
2023-02-27T12:45:32.720Z,9.51
2023-02-27T12:48:22.521Z,10.17
2023-02-27T12:51:04.261Z,10.39
2023-02-27T12:54:12.957Z,10.74
2023-02-27T12:56:56.015Z,10.42
2023-02-27T12:59:48.921Z,10.18
2023-02-27T13:02:51.402Z,10.15
2023-02-27T13:05:38.706Z,8.91
2023-02-27T13:08:21.835Z,8.50
2023-02-27T13:10:58.291Z,7.95
2023-02-27T13:13:36.829Z,8.62
2023-02-27T13:16:12.827Z,9.67
2023-02-27T13:18:47.391Z,10.19
2023-02-27T13:21:26.665Z,10.17
2023-02-27T13:24:10.828Z,10.44
2023-02-27T13:26:46.433Z,10.74
2023-02-27T13:29:18.285Z,11.04
2023-02-27T13:31:57.000Z,10.93
2023-02-27T13:34:42.596Z,11.21
2023-02-27T13:37:11.324Z,10.59
2023-02-27T13:39:59.440Z,10.28
2023-02-27T13:42:58.963Z,10.63
2023-02-27T13:45:58.207Z,10.66
2023-02-27T13:49:28.766Z,11.18
2023-02-27T13:52:06.577Z,11.18
2023-02-27T13:54:42.314Z,10.67
2023-02-27T13:57:33.753Z,10.06
2023-02-27T14:00:09.149Z,10.08
2023-02-27T14:02:59.294Z,9.90
2023-02-27T14:05:34.835Z,9.76
2023-02-27T14:08:15.273Z,9.58
2023-02-27T14:10:58.866Z,8.96
2023-02-27T14:13:59.636Z,9.32
2023-02-27T14:16:58.726Z,10.14
2023-02-27T14:19:56.958Z,10.01
2023-02-27T14:23:11.311Z,9.70
2023-02-27T14:25:46.537Z,8.98
2023-02-27T14:28:26.277Z,9.13
2023-02-27T14:31:01.096Z,9.08
2023-02-27T14:33:46.779Z,9.40
2023-02-27T14:36:20.620Z,9.31
2023-02-27T14:38:50.532Z,9.62
2023-02-27T14:41:40.489Z,9.60
2023-02-27T14:44:20.194Z,8.90
2023-02-27T14:46:48.532Z,8.78
2023-02-27T14:49:24.411Z,8.84
2023-02-27T14:51:53.142Z,8.94
2023-02-27T14:54:24.642Z,8.78
2023-02-27T14:56:59.691Z,8.34
2023-02-27T14:59:31.210Z,8.56
2023-02-27T15:02:04.272Z,8.29
2023-02-27T15:04:34.460Z,8.44
2023-02-27T15:07:02.991Z,8.30
2023-02-27T15:09:38.521Z,8.25
2023-02-27T15:12:09.690Z,8.08
2023-02-27T15:14:41.164Z,8.07
2023-02-27T15:17:18.458Z,8.18
2023-02-27T15:19:54.394Z,8.13
2023-02-27T15:22:38.646Z,8.07
2023-02-27T15:25:27.165Z,8.06
2023-02-27T15:28:01.675Z,7.97
2023-02-27T15:30:29.975Z,7.96
2023-02-27T15:32:58.643Z,7.76
2023-02-27T15:35:33.281Z,7.62
2023-02-27T15:38:02.538Z,7.54
2023-02-27T15:40:33.822Z,7.46
2023-02-27T15:43:03.869Z,7.38
2023-02-27T15:45:35.107Z,7.60
2023-02-27T15:48:04.748Z,7.55
2023-02-27T15:50:37.223Z,7.51
2023-02-27T15:53:13.405Z,7.59
2023-02-27T15:55:46.057Z,7.48
2023-02-27T15:58:25.896Z,7.62
2023-02-27T16:01:01.655Z,7.73
2023-02-27T16:03:34.883Z,7.51
2023-02-27T16:06:03.036Z,7.58
2023-02-27T16:08:32.916Z,7.54
2023-02-27T16:11:02.334Z,7.87
2023-02-27T16:13:38.128Z,7.62
2023-02-27T16:16:23.031Z,7.47
2023-02-27T16:18:53.962Z,7.48
2023-02-27T16:21:23.770Z,7.57
2023-02-27T16:23:53.926Z,7.53
2023-02-27T16:26:31.855Z,7.58
2023-02-27T16:29:04.741Z,7.53
2023-02-27T16:31:36.732Z,7.72
2023-02-27T16:34:16.691Z,7.71
2023-02-27T16:36:55.820Z,7.52
2023-02-27T16:39:23.984Z,7.45
2023-02-27T16:41:53.995Z,7.51
2023-02-27T16:44:24.397Z,7.22
2023-02-27T16:46:53.344Z,7.28
2023-02-27T16:49:24.640Z,7.09
2023-02-27T16:51:53.429Z,6.99
2023-02-27T16:54:21.950Z,6.93
2023-02-27T16:56:51.841Z,6.83
2023-02-27T16:59:33.435Z,6.69
2023-02-27T17:02:04.419Z,6.58
2023-02-27T17:04:33.114Z,6.64
2023-02-27T17:07:06.409Z,6.55
2023-02-27T17:09:35.198Z,6.54
2023-02-27T17:12:03.373Z,6.41
2023-02-27T17:14:32.701Z,6.27
2023-02-27T17:17:00.699Z,6.33
2023-02-27T17:19:28.662Z,6.28
2023-02-27T17:21:56.668Z,6.34
2023-02-27T17:24:24.633Z,6.44
2023-02-27T17:26:54.460Z,6.38
2023-02-27T17:29:23.948Z,6.48
2023-02-27T17:31:57.457Z,6.39
2023-02-27T17:34:25.587Z,6.22
2023-02-27T17:36:53.529Z,6.54
2023-02-27T17:39:21.549Z,6.28
2023-02-27T17:41:49.536Z,6.33
2023-02-27T17:44:17.445Z,6.30
2023-02-27T17:46:45.404Z,6.19
2023-02-27T17:49:14.687Z,6.05
2023-02-27T17:51:42.764Z,6.21
2023-02-27T17:54:11.109Z,6.26
2023-02-27T17:56:44.619Z,6.48
2023-02-27T17:59:12.604Z,6.56
2023-02-27T18:01:40.742Z,6.06
2023-02-27T18:04:22.977Z,6.22
2023-02-27T18:06:51.520Z,6.15
2023-02-27T18:09:19.593Z,6.09
2023-02-27T18:11:49.599Z,6.04
2023-02-27T18:14:17.528Z,6.03
2023-02-27T18:16:45.463Z,6.08
2023-02-27T18:19:14.467Z,6.37
2023-02-27T18:21:48.311Z,6.11
2023-02-27T18:24:17.340Z,6.04
2023-02-27T18:26:45.566Z,6.37
2023-02-27T18:29:16.328Z,6.45
2023-02-27T18:31:47.550Z,6.44
2023-02-27T18:34:15.893Z,6.31
2023-02-27T18:36:46.567Z,5.99
2023-02-27T18:39:14.580Z,5.93
2023-02-27T18:41:42.834Z,5.75
2023-02-27T18:44:11.572Z,5.61
2023-02-27T18:46:40.591Z,5.47
2023-02-27T18:49:11.147Z,5.42
2023-02-27T18:51:41.801Z,5.40
2023-02-27T18:54:13.779Z,5.28
2023-02-27T18:56:41.968Z,5.39
2023-02-27T18:59:11.951Z,5.29
2023-02-27T19:01:41.087Z,5.28
2023-02-27T19:04:10.164Z,5.09
2023-02-27T19:06:45.469Z,5.13
2023-02-27T19:09:17.010Z,5.38
2023-02-27T19:11:46.962Z,5.17
2023-02-27T19:14:17.060Z,5.19
2023-02-27T19:16:46.085Z,5.50
2023-02-27T19:19:13.998Z,5.28
2023-02-27T19:21:41.932Z,5.21
2023-02-27T19:24:13.169Z,5.39
2023-02-27T19:26:42.828Z,5.13
2023-02-27T19:29:10.907Z,5.17
2023-02-27T19:31:38.900Z,5.24
2023-02-27T19:34:07.078Z,5.48
2023-02-27T19:36:35.623Z,5.64
2023-02-27T19:39:08.695Z,5.67
2023-02-27T19:41:42.490Z,5.76
2023-02-27T19:44:10.737Z,5.83
2023-02-27T19:46:42.151Z,5.77
2023-02-27T19:49:10.142Z,5.73
2023-02-27T19:51:38.776Z,5.71
2023-02-27T19:54:07.527Z,5.51
2023-02-27T19:56:35.393Z,5.57
2023-02-27T19:59:04.930Z,5.56
2023-02-27T20:01:38.858Z,5.44
2023-02-27T20:04:11.128Z,5.46
2023-02-27T20:06:43.872Z,5.31
2023-02-27T20:09:20.266Z,5.33
2023-02-27T20:11:56.773Z,5.25
2023-02-27T20:14:27.161Z,5.13
2023-02-27T20:16:55.787Z,5.02
2023-02-27T20:19:26.741Z,5.11
2023-02-27T20:21:56.477Z,5.14
2023-02-27T20:24:24.538Z,5.04
2023-02-27T20:26:58.752Z,4.96
2023-02-27T20:29:29.602Z,5.02
2023-02-27T20:31:58.277Z,4.91
2023-02-27T20:34:27.709Z,4.90
2023-02-27T20:36:57.576Z,4.91
2023-02-27T20:39:26.065Z,4.89
2023-02-27T20:41:54.061Z,4.90
2023-02-27T20:44:21.933Z,4.89
2023-02-27T20:46:53.920Z,4.86
2023-02-27T20:49:22.731Z,4.69
2023-02-27T20:51:52.750Z,4.59
2023-02-27T20:54:21.134Z,4.52
2023-02-27T20:56:52.813Z,4.43
2023-02-27T20:59:23.440Z,4.53
2023-02-27T21:01:55.484Z,4.60
2023-02-27T21:04:34.041Z,4.62
2023-02-27T21:07:02.287Z,4.48
2023-02-27T21:09:31.664Z,4.28
2023-02-27T21:11:59.601Z,4.19
2023-02-27T21:14:27.533Z,4.30
2023-02-27T21:16:56.882Z,4.21
2023-02-27T21:19:25.305Z,4.20
2023-02-27T21:21:53.325Z,4.14
2023-02-27T21:24:21.511Z,3.96
2023-02-27T21:26:52.020Z,3.82
2023-02-27T21:29:22.288Z,3.71
2023-02-27T21:31:53.008Z,3.95
2023-02-27T21:34:26.560Z,3.92
2023-02-27T21:36:55.463Z,3.55
2023-02-27T21:39:28.068Z,3.69
2023-02-27T21:41:56.352Z,3.88
2023-02-27T21:44:26.141Z,3.91
2023-02-27T21:46:55.614Z,3.98
2023-02-27T21:49:28.181Z,3.91
2023-02-27T21:51:57.085Z,4.03
2023-02-27T21:54:25.426Z,3.86
2023-02-27T21:56:53.392Z,4.05
2023-02-27T21:59:21.853Z,4.11
2023-02-27T22:01:50.199Z,4.03
2023-02-27T22:04:21.428Z,3.95
2023-02-27T22:06:54.060Z,3.78
2023-02-27T22:09:22.371Z,4.14
2023-02-27T22:11:50.286Z,4.17
2023-02-27T22:14:18.428Z,4.32
2023-02-27T22:16:46.460Z,4.26
2023-02-27T22:19:19.762Z,4.03
2023-02-27T22:21:47.998Z,4.34
2023-02-27T22:24:17.775Z,4.26
2023-02-27T22:26:47.786Z,4.32
2023-02-27T22:29:17.110Z,4.25
2023-02-27T22:31:45.356Z,4.37
2023-02-27T22:34:18.031Z,4.56
2023-02-27T22:36:58.549Z,4.72
2023-02-27T22:39:27.904Z,4.66
2023-02-27T22:41:56.879Z,4.42
2023-02-27T22:44:25.227Z,4.38
2023-02-27T22:46:54.657Z,4.36
2023-02-27T22:49:24.781Z,4.37
2023-02-27T22:51:53.589Z,4.54
2023-02-27T22:54:23.702Z,4.81
2023-02-27T22:56:57.903Z,4.80
2023-02-27T22:59:26.792Z,4.92
2023-02-27T23:01:55.116Z,4.94
2023-02-27T23:04:23.208Z,4.93
2023-02-27T23:06:52.898Z,4.90
2023-02-27T23:09:25.393Z,5.04
2023-02-27T23:11:55.685Z,5.13
2023-02-27T23:14:24.065Z,5.22
2023-02-27T23:16:52.023Z,5.05
2023-02-27T23:19:22.380Z,4.81
2023-02-27T23:21:50.713Z,4.69
2023-02-27T23:24:20.638Z,4.30
2023-02-27T23:26:52.655Z,4.55
2023-02-27T23:29:22.444Z,4.71
2023-02-27T23:31:53.977Z,4.87
2023-02-27T23:34:21.964Z,4.48
2023-02-27T23:36:51.123Z,4.61
2023-02-27T23:39:19.457Z,4.37
2023-02-27T23:41:47.446Z,4.72
2023-02-27T23:44:33.107Z,4.19
2023-02-27T23:47:02.445Z,4.46
2023-02-27T23:49:30.420Z,4.14
2023-02-27T23:51:58.248Z,4.18
2023-02-27T23:54:26.104Z,4.10
2023-02-27T23:56:54.005Z,4.60
2023-02-27T23:59:21.921Z,4.72
